Time;durP1;ratioP1;P1;durP2;ratioP2;P2;SDS_P1;SDS_P2;PMS_P1;PMS_P2;Temp;Humidity;BMP_temperature;BMP_pressure;BME280_temperature;BME280_humidity;BME280_pressure;Samples;Min_cycle;Max_cycle;Signal;HPM_P1;HPM_P2
2022/05/25 00:00:22;;;;;;;7.60;4.50;;;19.30;60.20;;;;;;5039397;28;20051;-72
2022/05/25 00:02:48;;;;;;;10.85;4.60;;;19.30;60.10;;;;;;5072909;28;20040;-77
2022/05/25 00:05:16;;;;;;;7.65;4.53;;;19.20;60.10;;;;;;5073668;28;20040;-77
2022/05/25 00:07:42;;;;;;;9.30;4.45;;;19.20;60.30;;;;;;5055755;28;20074;-77
2022/05/25 00:10:09;;;;;;;9.25;4.65;;;19.10;59.70;;;;;;5055655;28;20131;-72
2022/05/25 00:12:55;;;;;;;12.57;5.45;;;19.10;60.10;;;;;;5073391;28;20028;-73
2022/05/25 00:15:21;;;;;;;11.65;4.65;;;19.10;60.20;;;;;;4990997;28;20207;-73
2022/05/25 00:17:47;;;;;;;10.55;4.82;;;19.10;60.00;;;;;;4990911;28;20096;-77
2022/05/25 00:20:15;;;;;;;10.73;4.93;;;19.10;60.10;;;;;;4990571;28;20133;-72
2022/05/25 00:22:59;;;;;;;15.07;5.43;;;19.00;60.00;;;;;;4975566;28;20411;-77
2022/05/25 00:25:30;;;;;;;10.75;5.20;;;18.90;60.30;;;;;;4975190;28;20069;-73
2022/05/25 00:27:59;;;;;;;10.50;4.90;;;18.90;60.30;;;;;;4991783;28;20063;-72
2022/05/25 00:30:27;;;;;;;10.43;4.60;;;18.80;60.30;;;;;;4974876;28;20503;-77
2022/05/25 00:33:12;;;;;;;13.73;5.30;;;18.80;60.30;;;;;;4974237;28;20042;-77
2022/05/25 00:35:40;;;;;;;9.65;4.57;;;18.80;60.40;;;;;;4990910;28;20104;-77
2022/05/25 00:38:08;;;;;;;10.90;4.43;;;18.80;60.70;;;;;;4991267;28;20034;-72
2022/05/25 00:40:39;;;;;;;9.82;3.90;;;18.80;60.80;;;;;;4974843;28;20045;-72
2022/05/25 00:43:07;;;;;;;14.98;4.72;;;18.70;61.00;;;;;;4991412;28;20369;-73
2022/05/25 00:46:13;;;;;;;7.95;3.83;;;18.70;60.90;;;;;;4990970;28;20034;-77
2022/05/25 00:48:45;;;;;;;8.63;4.05;;;18.80;61.00;;;;;;4990385;28;20047;-77
2022/05/25 00:51:15;;;;;;;8.88;4.10;;;18.70;61.00;;;;;;4990855;28;20089;-77
2022/05/25 00:54:20;;;;;;;8.32;4.45;;;18.70;61.00;;;;;;5034972;28;20064;-77
2022/05/25 00:56:50;;;;;;;11.05;4.40;;;18.70;60.80;;;;;;5034321;28;20029;-74
2022/05/25 00:59:41;;;;;;;11.40;3.90;;;18.60;61.10;;;;;;5034960;28;20106;-73
2022/05/25 01:02:07;;;;;;;7.80;4.00;;;18.50;61.30;;;;;;5034559;28;20025;-77
2022/05/25 01:04:33;;;;;;;9.93;5.07;;;18.60;61.40;;;;;;5066524;28;20429;-72
2022/05/25 01:07:55;;;;;;;11.70;4.22;;;18.50;62.30;;;;;;5054411;28;20082;-77
2022/05/25 01:11:17;;;;;;;10.40;3.70;;;18.50;61.30;;;;;;5072010;28;20103;-77
2022/05/25 01:14:15;;;;;;;10.00;4.20;;;18.50;61.40;;;;;;5072538;28;20033;-72
2022/05/25 01:17:18;;;;;;;7.38;3.50;;;18.40;61.70;;;;;;5054216;28;20524;-77
2022/05/25 01:20:06;;;;;;;8.98;4.65;;;18.30;61.60;;;;;;5071749;28;20409;-77
2022/05/25 01:23:09;;;;;;;10.90;4.57;;;18.30;61.70;;;;;;5054579;28;20021;-78
2022/05/25 01:26:20;;;;;;;13.15;5.15;;;18.20;61.80;;;;;;5072073;28;20040;-73
2022/05/25 01:29:28;;;;;;;14.23;5.10;;;18.10;61.80;;;;;;5054352;28;20039;-77
2022/05/25 01:32:20;;;;;;;9.02;4.95;;;18.00;61.90;;;;;;5075353;28;20078;-73
2022/05/25 01:34:53;;;;;;;11.23;5.07;;;17.90;62.10;;;;;;5075824;28;20363;-73
2022/05/25 01:37:52;;;;;;;11.18;4.63;;;17.80;62.20;;;;;;5076175;28;20032;-77
2022/05/25 01:40:22;;;;;;;10.68;4.47;;;17.80;62.70;;;;;;5058188;28;20041;-76
2022/05/25 01:43:45;;;;;;;11.20;4.30;;;17.70;62.60;;;;;;5058561;28;20063;-77
2022/05/25 01:46:35;;;;;;;10.27;4.18;;;17.70;62.40;;;;;;5057991;28;20055;-73
2022/05/25 01:49:22;;;;;;;7.68;4.15;;;17.70;62.50;;;;;;5075735;28;20442;-77
2022/05/25 01:52:10;;;;;;;7.25;3.70;;;17.70;62.30;;;;;;5057872;28;20032;-73
2022/05/25 01:54:48;;;;;;;10.95;4.13;;;17.70;62.50;;;;;;5041741;28;20040;-77
2022/05/25 01:57:15;;;;;;;7.75;4.10;;;17.60;62.30;;;;;;5057936;28;20024;-77
2022/05/25 01:59:44;;;;;;;11.02;4.72;;;17.50;62.50;;;;;;5041581;28;20036;-77
2022/05/25 02:04:59;;;;;;;12.55;4.45;;;17.60;62.70;;;;;;5054240;28;20607;-76
2022/05/25 02:07:47;;;;;;;11.82;4.00;;;17.50;62.70;;;;;;5037858;28;20234;-72
2022/05/25 02:10:44;;;;;;;;;;;17.60;62.60;;;;;;5056533;28;20514;-73
2022/05/25 02:13:32;;;;;;;10.48;3.53;;;17.50;61.80;;;;;;5054690;28;19912;-77
2022/05/25 02:16:05;;;;;;;9.05;4.28;;;17.40;62.30;;;;;;5055322;28;20103;-73
2022/05/25 02:18:56;;;;;;;9.45;4.43;;;17.40;62.80;;;;;;5037767;28;20166;-77
2022/05/25 02:21:47;;;;;;;7.28;4.00;;;17.40;62.70;;;;;;5075702;28;20032;-73
2022/05/25 02:25:14;;;;;;;9.05;3.60;;;17.40;62.80;;;;;;5057860;28;20036;-77
2022/05/25 02:27:48;;;;;;;10.60;4.30;;;17.40;62.70;;;;;;5044223;28;20437;-78
2022/05/25 02:30:20;;;;;;;9.07;4.45;;;17.40;62.90;;;;;;5021009;28;20075;-73
2022/05/25 02:33:42;;;;;;;11.35;3.95;;;17.40;62.90;;;;;;5037471;28;20044;-73
2022/05/25 02:36:11;;;;;;;11.75;4.38;;;17.30;62.90;;;;;;5037218;28;20037;-78
2022/05/25 02:38:39;;;;;;;10.35;3.97;;;17.30;63.20;;;;;;5037517;28;20482;-78
2022/05/25 02:41:11;;;;;;;11.50;4.68;;;17.20;63.50;;;;;;5037169;28;20290;-77
2022/05/25 02:43:38;;;;;;;9.48;4.13;;;17.20;63.70;;;;;;5036294;28;20041;-73
2022/05/25 02:46:07;;;;;;;9.65;5.00;;;17.10;64.10;;;;;;5037053;28;20037;-73
2022/05/25 02:48:53;;;;;;;10.55;5.03;;;17.00;64.40;;;;;;5037255;28;20083;-73
2022/05/25 02:51:19;;;;;;;7.95;4.18;;;17.00;64.30;;;;;;5054804;28;20048;-77
2022/05/25 02:53:46;;;;;;;18.50;5.28;;;17.10;63.60;;;;;;5055115;28;20043;-72
2022/05/25 02:56:12;;;;;;;10.43;5.10;;;17.10;64.20;;;;;;5036884;28;20490;-77
2022/05/25 02:58:38;;;;;;;9.88;5.28;;;17.20;64.20;;;;;;5037175;28;20393;-73
2022/05/25 03:01:05;;;;;;;10.18;4.88;;;17.10;64.10;;;;;;5036771;28;20068;-77
2022/05/25 03:03:50;;;;;;;12.50;5.40;;;17.10;64.20;;;;;;5037308;28;20406;-77
2022/05/25 03:06:17;;;;;;;12.23;5.18;;;17.20;64.40;;;;;;5036339;28;20037;-73
2022/05/25 03:08:44;;;;;;;9.02;4.20;;;17.20;64.20;;;;;;5020304;28;20037;-78
2022/05/25 03:11:10;;;;;;;;;;;17.20;64.20;;;;;;5037180;28;20033;-73
2022/05/25 03:13:36;;;;;;;7.75;3.85;;;17.10;63.40;;;;;;5036859;28;19921;-73
2022/05/25 03:16:05;;;;;;;8.43;4.38;;;17.00;63.50;;;;;;5019980;28;20075;-73
2022/05/25 03:18:31;;;;;;;10.00;4.68;;;17.10;64.20;;;;;;5054477;28;20029;-77
2022/05/25 03:20:57;;;;;;;;;;;17.10;64.40;;;;;;5032837;28;20030;-73
2022/05/25 03:23:23;;;;;;;9.48;4.65;;;17.10;63.70;;;;;;5034682;28;19921;-73
2022/05/25 03:25:49;;;;;;;10.60;4.50;;;17.10;64.30;;;;;;5016493;28;20041;-74
2022/05/25 03:28:16;;;;;;;8.85;5.15;;;17.10;63.90;;;;;;5035113;28;20498;-77
2022/05/25 03:30:45;;;;;;;10.68;4.82;;;17.10;64.60;;;;;;5053978;28;20041;-73
2022/05/25 03:33:12;;;;;;;9.13;5.10;;;17.20;64.70;;;;;;5036615;28;20478;-77
2022/05/25 03:35:38;;;;;;;8.18;4.43;;;17.20;64.90;;;;;;5048251;28;20513;-77
2022/05/25 03:38:05;;;;;;;8.73;4.90;;;17.10;65.00;;;;;;5039656;28;20063;-78
2022/05/25 03:40:31;;;;;;;9.50;4.80;;;17.20;65.10;;;;;;5073678;28;20028;-73
2022/05/25 03:42:58;;;;;;;9.85;4.80;;;17.20;64.50;;;;;;5056335;28;20390;-77
2022/05/25 03:45:24;;;;;;;9.82;5.15;;;17.20;65.00;;;;;;5055747;28;20086;-77
2022/05/25 03:47:51;;;;;;;8.75;5.00;;;17.20;64.70;;;;;;5056098;28;20115;-73
2022/05/25 03:53:02;;;;;;;10.88;4.57;;;17.20;64.50;;;;;;5038578;28;19919;-78
2022/05/25 03:55:28;;;;;;;9.75;4.47;;;17.20;65.00;;;;;;5053427;28;20032;-74
2022/05/25 03:57:54;;;;;;;9.20;4.75;;;17.20;65.00;;;;;;5053858;28;20508;-77
2022/05/25 04:00:20;;;;;;;10.02;4.40;;;17.20;65.20;;;;;;5052414;28;20049;-73
2022/05/25 04:02:47;;;;;;;8.30;5.18;;;17.30;65.40;;;;;;5035907;28;20033;-77
2022/05/25 04:05:13;;;;;;;13.85;5.60;;;17.30;65.60;;;;;;5022103;28;20060;-73
2022/05/25 04:07:42;;;;;;;9.80;4.78;;;17.30;65.70;;;;;;5035844;28;20104;-73
2022/05/25 04:10:12;;;;;;;10.27;5.38;;;17.30;65.60;;;;;;5018970;28;20428;-77
2022/05/25 04:12:43;;;;;;;8.82;4.68;;;17.30;65.60;;;;;;5036054;28;20040;-77
2022/05/25 04:15:16;;;;;;;13.57;4.65;;;17.30;65.70;;;;;;5035563;28;20044;-73
2022/05/25 04:17:42;;;;;;;9.98;4.97;;;17.30;65.60;;;;;;5035755;28;20029;-73
2022/05/25 04:20:09;;;;;;;;;;;17.30;64.80;;;;;;5058826;28;20043;-77
2022/05/25 04:22:36;;;;;;;12.38;4.80;;;17.30;64.80;;;;;;5073476;28;19987;-77
2022/05/25 04:25:22;;;;;;;8.95;5.75;;;17.20;64.70;;;;;;5055622;28;20405;-73
2022/05/25 04:27:51;;;;;;;10.43;5.72;;;17.20;65.70;;;;;;5055485;28;20413;-74
2022/05/25 04:30:24;;;;;;;12.88;5.30;;;17.20;65.70;;;;;;5055127;28;20070;-73
2022/05/25 04:32:57;;;;;;;10.75;5.05;;;17.30;65.70;;;;;;5055366;28;20111;-77
2022/05/25 04:35:24;;;;;;;12.30;4.90;;;17.30;65.60;;;;;;5053967;28;20045;-73
2022/05/25 04:40:40;;;;;;;10.68;5.53;;;17.30;65.40;;;;;;5057527;28;20052;-73
2022/05/25 04:43:26;;;;;;;9.30;5.25;;;17.40;66.00;;;;;;5055176;28;20032;-73
2022/05/25 04:45:54;;;;;;;9.77;4.68;;;17.40;66.50;;;;;;5054751;28;20103;-76
2022/05/25 04:48:23;;;;;;;11.98;5.30;;;17.40;66.50;;;;;;5054896;28;20052;-77
2022/05/25 04:50:51;;;;;;;11.35;5.25;;;17.50;66.50;;;;;;5053492;28;20436;-73
2022/05/25 04:53:19;;;;;;;13.35;5.05;;;17.50;66.50;;;;;;5055043;28;20119;-73
2022/05/25 04:58:49;;;;;;;10.57;5.25;;;17.60;65.90;;;;;;5072836;28;20059;-73
2022/05/25 05:01:19;;;;;;;10.48;6.10;;;17.80;66.50;;;;;;5054438;28;20028;-74
2022/05/25 05:03:46;;;;;;;11.15;5.65;;;17.80;66.30;;;;;;5055222;28;20029;-73
2022/05/25 05:06:12;;;;;;;9.13;5.93;;;17.90;66.20;;;;;;5049746;28;20037;-77
2022/05/25 05:08:39;;;;;;;10.70;5.47;;;18.00;66.40;;;;;;5034738;28;20041;-74
2022/05/25 05:11:26;;;;;;;12.38;5.97;;;18.10;66.20;;;;;;5034384;28;20131;-73
2022/05/25 05:13:52;;;;;;;12.27;6.05;;;18.20;67.50;;;;;;5034591;28;20044;-77
2022/05/25 05:16:19;;;;;;;11.98;6.00;;;18.20;67.30;;;;;;5052140;28;20046;-77
2022/05/25 05:18:45;;;;;;;10.45;5.85;;;18.30;67.30;;;;;;5052600;28;20060;-77
2022/05/25 05:21:12;;;;;;;8.82;5.38;;;18.50;67.30;;;;;;5061494;28;20086;-77
2022/05/25 05:23:41;;;;;;;10.85;5.97;;;18.50;67.10;;;;;;5054434;28;20067;-77
2022/05/25 05:26:08;;;;;;;11.05;5.38;;;18.60;67.80;;;;;;5053988;28;20035;-73
2022/05/25 05:28:38;;;;;;;10.90;5.63;;;18.70;67.60;;;;;;5037688;28;20059;-73
2022/05/25 05:31:06;;;;;;;13.00;5.88;;;18.80;67.80;;;;;;5054179;28;20039;-73
2022/05/25 05:33:32;;;;;;;11.43;5.93;;;18.90;67.50;;;;;;5054704;28;20119;-73
2022/05/25 05:36:06;;;;;;;13.35;5.50;;;19.00;67.50;;;;;;5049875;28;20051;-73
2022/05/25 05:38:37;;;;;;;15.82;7.40;;;19.10;67.50;;;;;;5034493;28;20069;-72
2022/05/25 05:41:03;;;;;;;10.77;6.05;;;19.30;67.70;;;;;;5034311;28;20039;-73
2022/05/25 05:43:29;;;;;;;10.43;5.80;;;19.30;66.70;;;;;;5052226;28;20087;-72
2022/05/25 05:45:56;;;;;;;9.00;5.35;;;19.40;67.10;;;;;;5034082;28;20568;-77
2022/05/25 05:48:42;;;;;;;10.75;5.63;;;19.60;67.00;;;;;;5050755;28;20052;-73
2022/05/25 05:51:10;;;;;;;13.68;5.93;;;19.60;66.40;;;;;;5053092;28;20040;-77
2022/05/25 05:53:36;;;;;;;11.18;5.15;;;19.80;66.70;;;;;;5072223;28;20397;-76
2022/05/25 05:56:04;;;;;;;11.20;5.85;;;19.90;66.50;;;;;;5071867;28;20041;-77
2022/05/25 05:58:30;;;;;;;12.43;5.60;;;20.00;66.30;;;;;;5054214;28;20119;-73
2022/05/25 06:00:56;;;;;;;12.48;5.47;;;20.00;66.20;;;;;;5037059;28;20032;-76
2022/05/25 06:03:22;;;;;;;10.50;5.55;;;20.10;66.70;;;;;;5054272;28;20090;-76
2022/05/25 06:05:48;;;;;;;8.80;5.53;;;20.20;66.40;;;;;;5052934;28;20040;-76
2022/05/25 06:08:19;;;;;;;10.75;5.45;;;20.30;66.40;;;;;;5054227;28;20029;-76
2022/05/25 06:10:46;;;;;;;8.85;4.82;;;20.40;66.20;;;;;;5053791;28;20033;-76
2022/05/25 06:13:14;;;;;;;10.10;5.05;;;20.50;65.50;;;;;;5054029;28;20024;-76
2022/05/25 06:21:34;;;;;;;14.57;5.05;;;20.80;65.50;;;;;;5053621;28;20048;-73
2022/05/25 06:24:00;;;;;;;10.55;5.22;;;21.00;65.00;;;;;;5056009;28;20277;-77
2022/05/25 06:26:30;;;;;;;8.88;4.88;;;21.10;65.00;;;;;;5037290;28;20468;-76
2022/05/25 06:28:57;;;;;;;12.15;4.93;;;21.30;65.00;;;;;;5021519;28;20075;-76
2022/05/25 06:31:24;;;;;;;8.93;5.20;;;21.30;64.20;;;;;;5037261;28;20033;-73
2022/05/25 06:33:51;;;;;;;14.63;5.85;;;21.50;63.90;;;;;;5037473;28;20036;-73
2022/05/25 06:36:38;;;;;;;12.57;5.70;;;21.60;62.80;;;;;;5059683;28;20037;-72
2022/05/25 06:39:04;;;;;;;12.73;6.10;;;21.80;63.20;;;;;;5057488;28;20539;-76
2022/05/25 06:41:30;;;;;;;;;;;21.80;62.50;;;;;;5075833;28;20033;-73
2022/05/25 06:43:57;;;;;;;9.98;5.43;;;22.00;62.50;;;;;;5075288;28;19936;-72
2022/05/25 06:46:23;;;;;;;10.88;5.22;;;22.10;61.30;;;;;;5056859;28;20036;-76
2022/05/25 06:48:52;;;;;;;10.93;5.40;;;22.30;61.70;;;;;;5040612;28;20123;-72
2022/05/25 06:51:22;;;;;;;11.07;5.20;;;22.40;61.10;;;;;;5056030;28;20043;-76
2022/05/25 06:53:49;;;;;;;11.10;5.07;;;22.50;60.40;;;;;;5057197;28;20066;-76
2022/05/25 06:56:34;;;;;;;11.30;4.63;;;22.70;60.20;;;;;;5056826;28;20028;-76
2022/05/25 06:59:01;;;;;;;11.52;5.20;;;22.90;60.00;;;;;;5057125;28;20063;-76
2022/05/25 07:01:28;;;;;;;15.05;5.57;;;23.10;59.20;;;;;;5074532;28;20039;-73
2022/05/25 07:03:54;;;;;;;8.27;4.82;;;23.20;58.80;;;;;;5056917;28;20044;-72
2022/05/25 07:06:22;;;;;;;10.57;5.20;;;23.40;58.60;;;;;;5055707;28;20047;-73
2022/05/25 07:08:49;;;;;;;11.05;4.63;;;23.50;58.90;;;;;;5056865;28;20504;-73
2022/05/25 07:11:14;;;;;;;;;;;23.70;58.50;;;;;;5074901;28;20039;-76
2022/05/25 07:13:41;;;;;;;12.05;5.28;;;23.90;58.50;;;;;;5056542;28;19920;-73
2022/05/25 07:16:14;;;;;;;7.80;4.80;;;24.10;57.70;;;;;;5056409;28;20440;-72
2022/05/25 07:18:42;;;;;;;10.50;4.50;;;24.10;57.60;;;;;;5056693;28;20083;-73
2022/05/25 07:21:31;;;;;;;10.85;5.30;;;24.20;57.20;;;;;;5055657;28;20063;-73
2022/05/25 07:23:59;;;;;;;13.77;5.10;;;24.30;57.40;;;;;;5056684;28;20124;-76
2022/05/25 07:26:29;;;;;;;11.63;5.22;;;24.30;57.30;;;;;;5056051;28;20048;-76
2022/05/25 07:28:55;;;;;;;10.02;4.75;;;24.40;56.80;;;;;;5039353;28;20128;-76
2022/05/25 07:31:46;;;;;;;9.73;4.90;;;24.50;56.40;;;;;;5056100;28;20039;-73
2022/05/25 07:34:34;;;;;;;13.52;6.07;;;24.60;56.30;;;;;;5057056;28;20045;-73
2022/05/25 07:37:21;;;;;;;11.15;5.65;;;24.60;56.40;;;;;;5073025;28;20032;-77
2022/05/25 07:40:11;;;;;;;14.50;5.07;;;24.70;55.30;;;;;;5056322;28;20036;-76
2022/05/25 07:42:40;;;;;;;10.02;4.93;;;24.80;55.30;;;;;;5074231;28;20493;-77
2022/05/25 07:45:07;;;;;;;10.43;5.50;;;24.90;54.80;;;;;;5056311;28;20395;-73
2022/05/25 07:47:37;;;;;;;8.80;5.30;;;24.80;54.30;;;;;;5073965;28;20393;-73
2022/05/25 07:50:05;;;;;;;11.88;4.93;;;25.00;54.40;;;;;;5074164;28;20048;-73
2022/05/25 07:55:59;;;;;;;14.10;5.20;;;25.20;53.90;;;;;;5074033;28;20159;-73
2022/05/25 07:58:28;;;;;;;7.85;5.20;;;25.30;53.40;;;;;;5056482;28;20440;-74
2022/05/25 08:00:58;;;;;;;9.20;4.70;;;25.30;52.90;;;;;;5073206;28;20028;-77
2022/05/25 08:06:10;;;;;;;13.60;5.05;;;25.50;51.50;;;;;;5073477;28;20535;-76
2022/05/25 08:08:36;;;;;;;8.55;4.40;;;25.60;51.50;;;;;;5054730;28;20029;-74
2022/05/25 08:11:06;;;;;;;10.75;4.13;;;25.70;51.30;;;;;;5055607;28;20082;-73
2022/05/25 08:13:35;;;;;;;10.23;4.68;;;25.80;51.00;;;;;;5038915;28;20447;-73
2022/05/25 08:16:02;;;;;;;6.88;4.55;;;25.90;49.70;;;;;;5073036;28;20107;-73
2022/05/25 08:18:28;;;;;;;9.30;4.10;;;25.90;50.50;;;;;;5055568;28;20401;-73
2022/05/25 08:20:54;;;;;;;11.25;4.57;;;26.00;50.30;;;;;;5038477;28;20123;-76
2022/05/25 08:23:21;;;;;;;8.40;4.28;;;26.10;49.70;;;;;;5072508;28;20040;-73
2022/05/25 08:25:47;;;;;;;9.63;4.78;;;26.20;50.00;;;;;;5055103;28;20481;-76
2022/05/25 08:28:13;;;;;;;11.68;5.03;;;26.30;49.90;;;;;;5073209;28;20378;-76
2022/05/25 08:30:42;;;;;;;7.38;4.80;;;26.40;49.00;;;;;;5072749;28;20040;-73
2022/05/25 08:33:09;;;;;;;10.02;4.65;;;26.30;49.20;;;;;;5055094;28;20439;-76
2022/05/25 08:35:35;;;;;;;11.63;4.80;;;26.50;49.10;;;;;;5054769;28;20061;-76
2022/05/25 08:38:02;;;;;;;15.30;4.78;;;26.60;48.80;;;;;;5072106;28;20497;-73
2022/05/25 08:40:31;;;;;;;14.30;5.10;;;26.70;48.40;;;;;;5071836;28;20062;-76
2022/05/25 08:43:38;;;;;;;7.85;4.20;;;26.90;48.70;;;;;;5038324;28;20409;-73
2022/05/25 08:46:06;;;;;;;6.47;4.28;;;27.10;49.20;;;;;;5072723;28;20036;-72
2022/05/25 08:48:34;;;;;;;12.60;4.55;;;27.40;48.80;;;;;;5054904;28;20029;-73
2022/05/25 08:51:21;;;;;;;8.52;4.97;;;27.80;47.80;;;;;;5054615;28;20020;-76
2022/05/25 08:53:47;;;;;;;9.95;4.78;;;28.10;47.90;;;;;;5054032;28;20436;-76
2022/05/25 08:56:39;;;;;;;7.50;3.88;;;28.60;46.60;;;;;;5054608;28;20116;-76
2022/05/25 08:59:28;;;;;;;9.00;5.28;;;29.10;45.50;;;;;;5038413;28;20055;-73
2022/05/25 09:02:52;;;;;;;7.93;3.90;;;29.70;44.10;;;;;;5054472;28;20395;-72
2022/05/25 09:05:57;;;;;;;10.73;4.43;;;30.50;43.30;;;;;;5072734;28;20071;-75
2022/05/25 09:08:53;;;;;;;9.93;5.05;;;31.30;40.70;;;;;;5053846;28;20041;-76
2022/05/25 09:11:54;;;;;;;8.05;4.10;;;32.00;40.50;;;;;;5054349;28;20128;-73
2022/05/25 09:14:38;;;;;;;9.38;3.72;;;32.80;38.70;;;;;;5072788;28;20963;-73
2022/05/25 09:17:14;;;;;;;10.02;3.90;;;33.50;36.50;;;;;;5054366;28;20512;-73
2022/05/25 09:19:44;;;;;;;13.50;3.60;;;34.00;36.10;;;;;;5038066;28;20040;-76
2022/05/25 09:22:19;;;;;;;8.90;3.60;;;34.50;34.90;;;;;;5053495;28;20037;-77
2022/05/25 09:24:48;;;;;;;8.85;3.88;;;34.80;32.70;;;;;;5054892;28;20052;-77
2022/05/25 09:27:17;;;;;;;8.13;3.53;;;35.20;33.00;;;;;;5054232;28;20115;-76
2022/05/25 09:29:44;;;;;;;7.18;3.30;;;36.00;32.20;;;;;;5037743;28;20064;-77
2022/05/25 09:33:06;;;;;;;14.55;3.88;;;36.60;31.30;;;;;;5070728;28;20033;-73
2022/05/25 09:35:40;;;;;;;12.40;3.67;;;37.30;32.30;;;;;;5072059;28;20056;-76
2022/05/25 09:38:31;;;;;;;10.48;3.90;;;38.10;29.70;;;;;;5053651;28;20040;-74
2022/05/25 09:41:06;;;;;;;6.70;3.45;;;39.00;28.80;;;;;;5071995;28;20108;-73
2022/05/25 09:43:33;;;;;;;9.05;3.83;;;39.90;27.60;;;;;;5054151;28;20043;-73
2022/05/25 09:46:10;;;;;;;15.10;3.92;;;40.60;26.00;;;;;;5054045;28;20032;-76
2022/05/25 09:49:18;;;;;;;8.25;3.53;;;41.10;26.20;;;;;;5072164;28;20062;-73
2022/05/25 09:51:50;;;;;;;8.40;4.13;;;41.80;25.10;;;;;;5072985;28;20048;-73
2022/05/25 09:54:58;;;;;;;9.00;4.22;;;42.40;24.30;;;;;;5054122;28;20037;-73
2022/05/25 09:57:51;;;;;;;8.55;3.45;;;43.00;24.00;;;;;;5037950;28;20418;-75
2022/05/25 10:00:36;;;;;;;8.07;3.53;;;43.50;22.70;;;;;;5037645;28;20036;-73
2022/05/25 10:03:06;;;;;;;6.60;3.42;;;44.00;22.60;;;;;;5056017;28;20056;-73
2022/05/25 10:06:06;;;;;;;12.15;4.00;;;44.60;21.40;;;;;;5055624;28;20371;-73
2022/05/25 10:08:39;;;;;;;6.93;4.03;;;44.80;20.90;;;;;;5064489;28;20048;-72
2022/05/25 10:11:31;;;;;;;13.55;3.60;;;44.80;19.70;;;;;;5058586;28;20666;-73
2022/05/25 10:14:34;;;;;;;9.68;3.50;;;45.00;20.70;;;;;;5058534;28;20036;-73
2022/05/25 10:17:59;;;;;;;7.97;3.67;;;45.40;20.30;;;;;;5057776;28;20028;-76
2022/05/25 10:20:46;;;;;;;7.93;3.45;;;45.80;19.60;;;;;;5075276;28;20117;-72
2022/05/25 10:23:31;;;;;;;8.20;3.22;;;45.70;19.10;;;;;;5038575;28;20037;-73
2022/05/25 10:26:23;;;;;;;7.32;3.80;;;46.00;19.10;;;;;;5037388;28;20083;-76
2022/05/25 10:29:08;;;;;;;9.77;3.60;;;46.70;18.50;;;;;;5037675;28;20103;-75
2022/05/25 10:37:39;;;;;;;8.63;3.47;;;47.00;17.90;;;;;;5040198;28;20485;-73
2022/05/25 10:40:08;;;;;;;10.30;4.03;;;47.70;17.20;;;;;;5053630;28;20036;-72
2022/05/25 10:43:31;;;;;;;7.32;3.10;;;47.60;16.70;;;;;;5020970;28;20087;-73
2022/05/25 10:46:01;;;;;;;7.10;3.47;;;47.30;17.60;;;;;;5055263;28;20102;-73
2022/05/25 10:49:26;;;;;;;7.65;3.53;;;47.70;17.00;;;;;;5037406;28;20041;-76
2022/05/25 10:52:36;;;;;;;8.32;3.72;;;48.10;16.90;;;;;;5054710;28;20606;-73
2022/05/25 10:55:05;;;;;;;6.70;3.60;;;48.70;16.70;;;;;;5055378;28;20029;-75
2022/05/25 10:58:28;;;;;;;6.38;3.30;;;48.90;15.70;;;;;;5057268;28;20040;-73
2022/05/25 11:01:31;;;;;;;12.88;3.63;;;48.80;16.10;;;;;;5074927;28;20132;-76
2022/05/25 11:04:53;;;;;;;7.55;3.42;;;49.70;15.70;;;;;;5074004;28;20435;-75
2022/05/25 11:07:33;;;;;;;12.07;4.05;;;49.80;15.70;;;;;;5074749;28;20263;-73
2022/05/25 11:10:37;;;;;;;6.82;3.40;;;50.00;15.80;;;;;;5056084;28;20060;-76
2022/05/25 11:13:40;;;;;;;7.53;3.53;;;50.50;15.10;;;;;;5056752;28;20028;-73
2022/05/25 11:17:02;;;;;;;17.60;4.35;;;51.30;14.90;;;;;;5074399;28;20432;-73
2022/05/25 11:20:24;;;;;;;15.85;5.72;;;51.70;15.00;;;;;;5074995;28;20090;-76
2022/05/25 11:23:35;;;;;;;13.23;4.07;;;51.90;15.00;;;;;;5056728;28;20468;-76
2022/05/25 11:26:44;;;;;;;10.52;4.22;;;52.40;14.90;;;;;;5054266;28;20135;-76
2022/05/25 11:29:20;;;;;;;8.25;4.60;;;52.70;14.50;;;;;;5054738;28;20051;-73
2022/05/25 11:35:04;;;;;;;6.15;4.15;;;53.20;13.90;;;;;;5054213;28;20041;-73
2022/05/25 11:37:49;;;;;;;9.07;4.40;;;53.30;13.20;;;;;;5054186;28;20029;-73
2022/05/25 11:41:11;;;;;;;9.27;4.57;;;51.00;14.60;;;;;;5070878;28;20036;-75
2022/05/25 11:44:06;;;;;;;6.28;3.85;;;49.80;14.90;;;;;;5074209;28;20044;-76
2022/05/25 11:47:06;;;;;;;9.50;4.20;;;49.80;14.80;;;;;;5056032;28;20633;-73
2022/05/25 11:50:11;;;;;;;7.97;4.72;;;50.00;15.10;;;;;;5074284;28;20539;-72
2022/05/25 11:53:06;;;;;;;10.40;4.33;;;50.50;14.40;;;;;;5056438;28;20393;-76
2022/05/25 11:56:10;;;;;;;;;;;50.20;15.00;;;;;;5052127;28;20037;-75
2022/05/25 11:59:14;;;;;;;9.15;3.97;;;50.90;15.00;;;;;;5053934;28;20427;-75
2022/05/25 12:02:36;;;;;;;6.22;4.25;;;51.60;14.10;;;;;;5053453;28;20478;-76
2022/05/25 12:05:23;;;;;;;7.25;3.95;;;51.90;13.80;;;;;;5052721;28;20520;-75
2022/05/25 12:08:45;;;;;;;10.60;4.10;;;52.40;13.80;;;;;;5052548;28;20029;-75
2022/05/25 12:12:09;;;;;;;6.75;4.03;;;52.30;13.40;;;;;;5053302;28;20041;-73
2022/05/25 12:15:32;;;;;;;11.38;4.85;;;52.30;14.00;;;;;;5035041;28;20040;-75
2022/05/25 12:18:18;;;;;;;8.80;4.55;;;53.00;13.80;;;;;;5053412;28;20037;-76
2022/05/25 12:21:00;;;;;;;7.30;3.60;;;52.50;13.60;;;;;;5035456;28;20143;-73
2022/05/25 12:23:54;;;;;;;7.30;3.97;;;50.40;14.10;;;;;;5035266;28;20033;-73
2022/05/25 12:26:43;;;;;;;9.13;3.85;;;48.20;15.40;;;;;;5035503;28;20048;-72
2022/05/25 12:29:48;;;;;;;6.95;3.78;;;47.80;16.00;;;;;;5051966;28;20041;-73
2022/05/25 12:32:15;;;;;;;7.93;4.07;;;48.10;15.40;;;;;;5035086;28;20040;-76
2022/05/25 12:35:00;;;;;;;10.85;4.25;;;47.70;15.30;;;;;;5035493;28;20099;-76
2022/05/25 12:37:46;;;;;;;;;;;48.10;15.10;;;;;;5035921;28;20071;-73
2022/05/25 12:40:54;;;;;;;7.15;4.03;;;48.30;15.10;;;;;;5047112;28;19924;-76
2022/05/25 12:43:38;;;;;;;10.48;4.03;;;47.90;15.10;;;;;;5073035;28;20037;-72
2022/05/25 12:49:01;;;;;;;10.48;3.65;;;46.80;15.80;;;;;;5057854;28;20132;-73
2022/05/25 12:51:39;;;;;;;10.25;3.72;;;46.60;16.60;;;;;;5054618;28;20119;-76
2022/05/25 12:54:23;;;;;;;7.43;3.38;;;47.30;16.00;;;;;;5054938;28;20452;-76
2022/05/25 12:56:59;;;;;;;10.07;3.40;;;48.20;15.40;;;;;;5054565;28;20082;-73
2022/05/25 12:59:50;;;;;;;7.70;3.05;;;48.60;15.10;;;;;;5054962;28;20078;-76
2022/05/25 13:02:37;;;;;;;8.18;4.18;;;48.80;15.50;;;;;;5054573;28;20032;-76
2022/05/25 13:05:06;;;;;;;7.35;3.63;;;48.80;15.60;;;;;;5038482;28;20536;-72
2022/05/25 13:07:50;;;;;;;10.80;4.22;;;48.40;14.50;;;;;;5055113;28;20032;-76
2022/05/25 13:10:36;;;;;;;10.25;3.25;;;48.40;15.30;;;;;;5071888;28;20040;-75
2022/05/25 13:13:21;;;;;;;6.88;3.75;;;48.40;15.00;;;;;;5054534;28;20585;-71
2022/05/25 13:15:47;;;;;;;8.63;3.60;;;47.90;14.80;;;;;;5072163;28;20041;-72
2022/05/25 13:18:54;;;;;;;5.78;3.10;;;47.70;15.90;;;;;;5054689;28;20425;-75
2022/05/25 13:22:04;;;;;;;5.90;3.10;;;47.30;15.60;;;;;;5054674;28;20032;-72
2022/05/25 13:25:09;;;;;;;11.50;3.40;;;47.90;15.60;;;;;;5071841;28;20045;-75
2022/05/25 13:28:31;;;;;;;7.72;3.50;;;47.90;14.60;;;;;;5054133;28;20405;-71
2022/05/25 13:31:25;;;;;;;12.40;4.00;;;48.30;15.20;;;;;;5072126;28;20111;-74
2022/05/25 13:33:52;;;;;;;11.60;3.30;;;47.90;15.10;;;;;;5072552;28;20393;-75
2022/05/25 13:36:27;;;;;;;6.60;3.25;;;48.00;15.50;;;;;;5037268;28;20061;-71
2022/05/25 13:39:18;;;;;;;6.35;3.38;;;47.30;15.70;;;;;;5054331;28;20037;-70
2022/05/25 13:42:10;;;;;;;5.82;3.15;;;45.70;15.60;;;;;;5053909;28;20471;-71
2022/05/25 13:45:02;;;;;;;9.48;3.40;;;44.20;17.50;;;;;;5054575;28;20059;-72
2022/05/25 13:47:28;;;;;;;10.02;3.67;;;42.80;18.70;;;;;;5054147;28;20103;-72
2022/05/25 13:52:45;;;;;;;7.00;3.08;;;40.40;20.00;;;;;;5057109;28;20094;-71
2022/05/25 13:55:36;;;;;;;12.88;3.20;;;39.30;21.50;;;;;;5053008;28;20393;-72
2022/05/25 13:58:28;;;;;;;9.52;3.58;;;38.50;22.00;;;;;;5054233;28;20478;-72
2022/05/25 14:00:54;;;;;;;6.43;3.40;;;38.00;23.00;;;;;;5054023;28;20437;-72
2022/05/25 14:03:39;;;;;;;7.13;3.25;;;37.70;24.10;;;;;;5072265;28;20051;-76
2022/05/25 14:06:06;;;;;;;7.13;3.03;;;37.20;23.90;;;;;;5053909;28;20048;-73
2022/05/25 14:12:14;;;;;;;7.40;2.97;;;36.30;24.20;;;;;;5009639;28;20052;-76
2022/05/25 14:15:10;;;;;;;10.30;3.30;;;36.10;25.00;;;;;;5009858;28;20128;-72
2022/05/25 14:17:36;;;;;;;6.40;3.20;;;35.80;23.80;;;;;;5010097;28;20179;-72
2022/05/25 14:20:05;;;;;;;8.27;3.28;;;35.60;25.30;;;;;;5009857;28;20042;-76
2022/05/25 14:22:33;;;;;;;10.27;3.78;;;35.30;24.90;;;;;;5009643;28;20046;-72
2022/05/25 14:25:30;;;;;;;7.90;3.30;;;35.00;25.70;;;;;;5009120;28;20073;-76
2022/05/25 14:27:56;;;;;;;;;;;34.90;26.00;;;;;;4993920;28;20053;-73